sensor_id;sensor_type;location;lat;lon;timestamp;temperature;humidity
36548;DHT22;22551;52.206;4.856;2022-09-09T00:02:18;15.60;99.90
36548;DHT22;22551;52.206;4.856;2022-09-09T00:07:28;15.50;99.90
36548;DHT22;22551;52.206;4.856;2022-09-09T00:12:42;15.50;99.90
36548;DHT22;22551;52.206;4.856;2022-09-09T00:17:55;15.40;99.90
36548;DHT22;22551;52.206;4.856;2022-09-09T00:23:04;15.40;99.90
36548;DHT22;22551;52.206;4.856;2022-09-09T00:28:16;15.40;99.90
36548;DHT22;22551;52.206;4.856;2022-09-09T00:33:23;15.30;99.90
36548;DHT22;22551;52.206;4.856;2022-09-09T00:38:32;15.30;99.90
36548;DHT22;22551;52.206;4.856;2022-09-09T00:43:38;15.20;99.90
36548;DHT22;22551;52.206;4.856;2022-09-09T00:48:48;15.10;99.90
36548;DHT22;22551;52.206;4.856;2022-09-09T00:54:12;15.10;99.90
36548;DHT22;22551;52.206;4.856;2022-09-09T00:59:27;15.00;99.90
36548;DHT22;22551;52.206;4.856;2022-09-09T01:04:34;15.00;99.90
36548;DHT22;22551;52.206;4.856;2022-09-09T01:09:45;14.90;99.90
36548;DHT22;22551;52.206;4.856;2022-09-09T01:14:58;14.90;99.90
36548;DHT22;22551;52.206;4.856;2022-09-09T01:20:10;14.80;99.90
36548;DHT22;22551;52.206;4.856;2022-09-09T01:25:27;14.80;99.90
36548;DHT22;22551;52.206;4.856;2022-09-09T01:30:33;14.80;99.90
36548;DHT22;22551;52.206;4.856;2022-09-09T01:35:42;14.80;99.90
36548;DHT22;22551;52.206;4.856;2022-09-09T01:40:45;14.70;99.90
36548;DHT22;22551;52.206;4.856;2022-09-09T01:45:50;14.70;99.90
36548;DHT22;22551;52.206;4.856;2022-09-09T01:50:54;14.70;99.90
36548;DHT22;22551;52.206;4.856;2022-09-09T01:56:05;14.70;99.90
36548;DHT22;22551;52.206;4.856;2022-09-09T02:01:22;14.70;99.90
36548;DHT22;22551;52.206;4.856;2022-09-09T02:06:35;14.70;99.90
36548;DHT22;22551;52.206;4.856;2022-09-09T02:11:38;14.80;99.90
36548;DHT22;22551;52.206;4.856;2022-09-09T02:16:44;14.80;99.90
36548;DHT22;22551;52.206;4.856;2022-09-09T02:21:50;14.80;99.90
36548;DHT22;22551;52.206;4.856;2022-09-09T02:26:55;14.90;99.90
36548;DHT22;22551;52.206;4.856;2022-09-09T02:32:03;14.90;99.90
36548;DHT22;22551;52.206;4.856;2022-09-09T02:37:09;14.80;99.90
36548;DHT22;22551;52.206;4.856;2022-09-09T02:42:13;14.90;99.90
36548;DHT22;22551;52.206;4.856;2022-09-09T02:47:30;14.90;99.90
36548;DHT22;22551;52.206;4.856;2022-09-09T02:52:44;14.90;99.90
36548;DHT22;22551;52.206;4.856;2022-09-09T02:57:52;14.80;99.90
36548;DHT22;22551;52.206;4.856;2022-09-09T03:02:56;14.70;99.90
36548;DHT22;22551;52.206;4.856;2022-09-09T03:07:58;14.70;99.90
36548;DHT22;22551;52.206;4.856;2022-09-09T03:13:01;14.50;99.90
36548;DHT22;22551;52.206;4.856;2022-09-09T03:18:06;14.50;99.90
36548;DHT22;22551;52.206;4.856;2022-09-09T03:23:08;14.40;99.90
36548;DHT22;22551;52.206;4.856;2022-09-09T03:28:10;14.40;99.90
36548;DHT22;22551;52.206;4.856;2022-09-09T03:33:14;14.40;99.90
36548;DHT22;22551;52.206;4.856;2022-09-09T03:38:16;14.30;99.90
36548;DHT22;22551;52.206;4.856;2022-09-09T03:43:20;14.20;99.90
36548;DHT22;22551;52.206;4.856;2022-09-09T03:48:24;14.20;99.90
36548;DHT22;22551;52.206;4.856;2022-09-09T03:53:29;14.20;99.90
36548;DHT22;22551;52.206;4.856;2022-09-09T03:58:33;14.20;99.90
36548;DHT22;22551;52.206;4.856;2022-09-09T04:03:37;14.10;99.90
36548;DHT22;22551;52.206;4.856;2022-09-09T04:08:39;14.10;99.90
36548;DHT22;22551;52.206;4.856;2022-09-09T04:13:42;14.10;99.90
36548;DHT22;22551;52.206;4.856;2022-09-09T04:18:46;14.00;99.90
36548;DHT22;22551;52.206;4.856;2022-09-09T04:23:49;14.00;99.90
36548;DHT22;22551;52.206;4.856;2022-09-09T04:28:51;14.00;99.90
36548;DHT22;22551;52.206;4.856;2022-09-09T04:33:55;13.90;99.90
36548;DHT22;22551;52.206;4.856;2022-09-09T04:38:58;13.90;99.90
36548;DHT22;22551;52.206;4.856;2022-09-09T04:44:00;13.90;99.90
36548;DHT22;22551;52.206;4.856;2022-09-09T04:49:04;13.90;99.90
36548;DHT22;22551;52.206;4.856;2022-09-09T04:54:06;13.90;99.90
36548;DHT22;22551;52.206;4.856;2022-09-09T04:59:08;13.90;99.90
36548;DHT22;22551;52.206;4.856;2022-09-09T05:04:12;13.90;99.90
36548;DHT22;22551;52.206;4.856;2022-09-09T05:09:15;13.90;99.90
36548;DHT22;22551;52.206;4.856;2022-09-09T05:14:17;13.90;99.90
36548;DHT22;22551;52.206;4.856;2022-09-09T05:19:21;13.90;99.90
36548;DHT22;22551;52.206;4.856;2022-09-09T05:24:23;13.90;99.90
36548;DHT22;22551;52.206;4.856;2022-09-09T05:29:25;13.90;99.90
36548;DHT22;22551;52.206;4.856;2022-09-09T05:34:29;13.90;99.90
36548;DHT22;22551;52.206;4.856;2022-09-09T05:39:31;13.90;99.90
36548;DHT22;22551;52.206;4.856;2022-09-09T05:44:34;13.90;99.90
36548;DHT22;22551;52.206;4.856;2022-09-09T05:49:39;14.00;99.90
36548;DHT22;22551;52.206;4.856;2022-09-09T05:54:41;14.00;99.90
36548;DHT22;22551;52.206;4.856;2022-09-09T05:59:45;14.10;99.90
36548;DHT22;22551;52.206;4.856;2022-09-09T06:04:48;14.10;99.90
36548;DHT22;22551;52.206;4.856;2022-09-09T06:09:51;14.20;99.90
36548;DHT22;22551;52.206;4.856;2022-09-09T06:14:53;14.40;99.90
36548;DHT22;22551;52.206;4.856;2022-09-09T06:19:57;14.60;99.90
36548;DHT22;22551;52.206;4.856;2022-09-09T06:24:59;14.80;99.90
36548;DHT22;22551;52.206;4.856;2022-09-09T06:30:02;15.00;99.90
36548;DHT22;22551;52.206;4.856;2022-09-09T06:35:07;15.20;99.90
36548;DHT22;22551;52.206;4.856;2022-09-09T06:40:11;15.40;99.90
36548;DHT22;22551;52.206;4.856;2022-09-09T06:45:13;15.60;99.90
36548;DHT22;22551;52.206;4.856;2022-09-09T06:50:17;15.60;99.90
36548;DHT22;22551;52.206;4.856;2022-09-09T06:55:20;15.70;99.90
36548;DHT22;22551;52.206;4.856;2022-09-09T07:00:22;15.70;99.90
36548;DHT22;22551;52.206;4.856;2022-09-09T07:05:26;15.80;99.90
36548;DHT22;22551;52.206;4.856;2022-09-09T07:10:28;15.90;99.90
36548;DHT22;22551;52.206;4.856;2022-09-09T07:15:30;15.90;99.90
36548;DHT22;22551;52.206;4.856;2022-09-09T07:20:34;16.00;99.90
36548;DHT22;22551;52.206;4.856;2022-09-09T07:25:36;16.00;99.90
36548;DHT22;22551;52.206;4.856;2022-09-09T07:30:38;16.00;99.90
36548;DHT22;22551;52.206;4.856;2022-09-09T07:35:43;16.10;99.90
36548;DHT22;22551;52.206;4.856;2022-09-09T07:40:45;16.10;99.90
36548;DHT22;22551;52.206;4.856;2022-09-09T07:45:47;16.10;99.90
36548;DHT22;22551;52.206;4.856;2022-09-09T07:50:52;16.20;99.90
36548;DHT22;22551;52.206;4.856;2022-09-09T07:55:54;16.30;99.90
36548;DHT22;22551;52.206;4.856;2022-09-09T08:00:56;16.50;99.90
36548;DHT22;22551;52.206;4.856;2022-09-09T08:06:02;16.80;99.90
36548;DHT22;22551;52.206;4.856;2022-09-09T08:11:07;17.30;99.90
36548;DHT22;22551;52.206;4.856;2022-09-09T08:16:12;17.50;99.90
36548;DHT22;22551;52.206;4.856;2022-09-09T08:21:19;17.50;99.90
36548;DHT22;22551;52.206;4.856;2022-09-09T08:26:24;17.60;99.90
36548;DHT22;22551;52.206;4.856;2022-09-09T08:31:28;17.50;99.90
36548;DHT22;22551;52.206;4.856;2022-09-09T08:36:34;17.30;99.90
36548;DHT22;22551;52.206;4.856;2022-09-09T08:42:04;17.20;99.90
36548;DHT22;22551;52.206;4.856;2022-09-09T08:47:37;17.10;99.90
36548;DHT22;22551;52.206;4.856;2022-09-09T08:52:50;17.10;99.90
36548;DHT22;22551;52.206;4.856;2022-09-09T08:57:57;17.00;99.90
36548;DHT22;22551;52.206;4.856;2022-09-09T09:03:06;17.00;99.90
36548;DHT22;22551;52.206;4.856;2022-09-09T09:08:26;17.20;99.90
36548;DHT22;22551;52.206;4.856;2022-09-09T09:13:38;17.20;99.90
36548;DHT22;22551;52.206;4.856;2022-09-09T09:18:42;17.40;99.90
36548;DHT22;22551;52.206;4.856;2022-09-09T09:23:53;17.40;99.90
36548;DHT22;22551;52.206;4.856;2022-09-09T09:28:59;17.30;99.90
36548;DHT22;22551;52.206;4.856;2022-09-09T09:34:04;17.30;99.90
36548;DHT22;22551;52.206;4.856;2022-09-09T09:39:08;17.20;99.90
36548;DHT22;22551;52.206;4.856;2022-09-09T09:44:22;17.10;99.90
36548;DHT22;22551;52.206;4.856;2022-09-09T09:49:26;17.10;99.90
36548;DHT22;22551;52.206;4.856;2022-09-09T09:54:32;17.20;99.90
36548;DHT22;22551;52.206;4.856;2022-09-09T09:59:37;17.20;99.90
36548;DHT22;22551;52.206;4.856;2022-09-09T10:04:40;17.40;99.90
36548;DHT22;22551;52.206;4.856;2022-09-09T10:09:44;17.70;99.90
36548;DHT22;22551;52.206;4.856;2022-09-09T10:14:55;17.90;99.90
36548;DHT22;22551;52.206;4.856;2022-09-09T10:20:18;17.80;99.90
36548;DHT22;22551;52.206;4.856;2022-09-09T10:25:38;17.90;99.90
36548;DHT22;22551;52.206;4.856;2022-09-09T10:31:00;17.90;99.90
36548;DHT22;22551;52.206;4.856;2022-09-09T10:36:13;18.30;99.90
36548;DHT22;22551;52.206;4.856;2022-09-09T10:41:31;18.90;99.90
36548;DHT22;22551;52.206;4.856;2022-09-09T10:46:49;19.40;99.90
36548;DHT22;22551;52.206;4.856;2022-09-09T10:52:01;19.00;99.90
36548;DHT22;22551;52.206;4.856;2022-09-09T10:57:13;19.10;99.90
36548;DHT22;22551;52.206;4.856;2022-09-09T11:02:22;19.40;99.90
36548;DHT22;22551;52.206;4.856;2022-09-09T11:07:33;19.30;99.90
36548;DHT22;22551;52.206;4.856;2022-09-09T11:12:43;19.00;99.90
36548;DHT22;22551;52.206;4.856;2022-09-09T11:17:52;18.90;99.90
36548;DHT22;22551;52.206;4.856;2022-09-09T11:22:59;19.30;99.90
36548;DHT22;22551;52.206;4.856;2022-09-09T11:28:19;19.50;99.90
36548;DHT22;22551;52.206;4.856;2022-09-09T11:33:50;19.40;99.90
36548;DHT22;22551;52.206;4.856;2022-09-09T11:39:05;19.10;99.90
36548;DHT22;22551;52.206;4.856;2022-09-09T11:44:26;19.20;99.90
36548;DHT22;22551;52.206;4.856;2022-09-09T11:49:41;19.30;99.90
36548;DHT22;22551;52.206;4.856;2022-09-09T11:54:48;19.70;99.90
36548;DHT22;22551;52.206;4.856;2022-09-09T11:59:55;19.70;99.90
36548;DHT22;22551;52.206;4.856;2022-09-09T12:05:02;19.80;99.90
36548;DHT22;22551;52.206;4.856;2022-09-09T12:10:22;19.80;99.90
36548;DHT22;22551;52.206;4.856;2022-09-09T12:15:29;19.80;99.90
36548;DHT22;22551;52.206;4.856;2022-09-09T12:20:34;20.00;99.90
36548;DHT22;22551;52.206;4.856;2022-09-09T12:25:48;20.10;99.90
36548;DHT22;22551;52.206;4.856;2022-09-09T12:31:03;19.70;99.90
36548;DHT22;22551;52.206;4.856;2022-09-09T12:36:12;19.20;99.90
36548;DHT22;22551;52.206;4.856;2022-09-09T12:41:21;19.00;99.90
36548;DHT22;22551;52.206;4.856;2022-09-09T12:46:35;18.80;99.90
36548;DHT22;22551;52.206;4.856;2022-09-09T12:51:43;18.70;99.90
36548;DHT22;22551;52.206;4.856;2022-09-09T12:56:46;18.60;99.90
36548;DHT22;22551;52.206;4.856;2022-09-09T13:01:56;18.50;99.90
36548;DHT22;22551;52.206;4.856;2022-09-09T13:07:06;18.30;99.90
36548;DHT22;22551;52.206;4.856;2022-09-09T13:12:16;18.00;99.90
36548;DHT22;22551;52.206;4.856;2022-09-09T13:17:23;17.70;99.90
36548;DHT22;22551;52.206;4.856;2022-09-09T13:22:34;17.50;99.90
36548;DHT22;22551;52.206;4.856;2022-09-09T13:27:39;17.50;99.90
36548;DHT22;22551;52.206;4.856;2022-09-09T13:32:44;17.70;99.90
36548;DHT22;22551;52.206;4.856;2022-09-09T13:37:47;17.80;99.90
36548;DHT22;22551;52.206;4.856;2022-09-09T13:42:52;17.90;99.90
36548;DHT22;22551;52.206;4.856;2022-09-09T13:48:08;17.90;99.90
36548;DHT22;22551;52.206;4.856;2022-09-09T13:53:12;18.00;99.90
36548;DHT22;22551;52.206;4.856;2022-09-09T13:58:16;18.00;99.90
36548;DHT22;22551;52.206;4.856;2022-09-09T14:03:21;17.90;99.90
36548;DHT22;22551;52.206;4.856;2022-09-09T14:08:25;18.10;99.90
36548;DHT22;22551;52.206;4.856;2022-09-09T14:13:37;18.40;99.90
36548;DHT22;22551;52.206;4.856;2022-09-09T14:18:40;18.60;99.90
36548;DHT22;22551;52.206;4.856;2022-09-09T14:23:43;19.00;99.90
36548;DHT22;22551;52.206;4.856;2022-09-09T14:28:45;19.00;99.90
36548;DHT22;22551;52.206;4.856;2022-09-09T14:33:49;19.00;99.90
36548;DHT22;22551;52.206;4.856;2022-09-09T14:38:51;18.80;99.90
36548;DHT22;22551;52.206;4.856;2022-09-09T14:43:53;18.70;99.90
36548;DHT22;22551;52.206;4.856;2022-09-09T14:48:57;18.50;99.90
36548;DHT22;22551;52.206;4.856;2022-09-09T14:53:59;18.40;99.90
36548;DHT22;22551;52.206;4.856;2022-09-09T14:59:03;18.30;99.90
36548;DHT22;22551;52.206;4.856;2022-09-09T15:04:07;18.20;99.90
36548;DHT22;22551;52.206;4.856;2022-09-09T15:09:09;18.00;99.90
36548;DHT22;22551;52.206;4.856;2022-09-09T15:14:11;17.80;99.90
36548;DHT22;22551;52.206;4.856;2022-09-09T15:19:15;18.00;99.90
36548;DHT22;22551;52.206;4.856;2022-09-09T15:24:17;18.10;99.90
36548;DHT22;22551;52.206;4.856;2022-09-09T15:29:20;18.30;99.90
36548;DHT22;22551;52.206;4.856;2022-09-09T15:34:26;18.80;99.90
36548;DHT22;22551;52.206;4.856;2022-09-09T15:39:29;19.00;99.90
36548;DHT22;22551;52.206;4.856;2022-09-09T15:44:38;19.10;99.90
36548;DHT22;22551;52.206;4.856;2022-09-09T15:49:44;19.20;99.90
36548;DHT22;22551;52.206;4.856;2022-09-09T15:54:46;19.10;99.90
36548;DHT22;22551;52.206;4.856;2022-09-09T15:59:48;19.00;99.90
36548;DHT22;22551;52.206;4.856;2022-09-09T16:04:51;18.80;99.90
36548;DHT22;22551;52.206;4.856;2022-09-09T16:09:54;18.70;99.90
36548;DHT22;22551;52.206;4.856;2022-09-09T16:14:56;18.50;99.90
36548;DHT22;22551;52.206;4.856;2022-09-09T16:19:59;18.30;99.90
36548;DHT22;22551;52.206;4.856;2022-09-09T16:25:01;18.20;99.90
36548;DHT22;22551;52.206;4.856;2022-09-09T16:30:05;18.30;99.90
36548;DHT22;22551;52.206;4.856;2022-09-09T16:35:09;18.40;99.90
36548;DHT22;22551;52.206;4.856;2022-09-09T16:40:12;18.50;99.90
36548;DHT22;22551;52.206;4.856;2022-09-09T16:45:14;18.50;99.90
36548;DHT22;22551;52.206;4.856;2022-09-09T16:50:18;18.60;99.90
36548;DHT22;22551;52.206;4.856;2022-09-09T16:55:20;18.80;99.90
36548;DHT22;22551;52.206;4.856;2022-09-09T17:00:22;19.10;99.90
36548;DHT22;22551;52.206;4.856;2022-09-09T17:05:26;18.80;99.90
36548;DHT22;22551;52.206;4.856;2022-09-09T17:10:28;18.80;99.90
36548;DHT22;22551;52.206;4.856;2022-09-09T17:15:30;18.50;99.90
36548;DHT22;22551;52.206;4.856;2022-09-09T17:20:36;18.40;99.90
36548;DHT22;22551;52.206;4.856;2022-09-09T17:25:40;18.20;99.90
36548;DHT22;22551;52.206;4.856;2022-09-09T17:30:42;18.10;99.90
36548;DHT22;22551;52.206;4.856;2022-09-09T17:35:46;18.00;99.90
36548;DHT22;22551;52.206;4.856;2022-09-09T17:40:48;17.90;99.90
36548;DHT22;22551;52.206;4.856;2022-09-09T17:45:51;17.70;99.90
36548;DHT22;22551;52.206;4.856;2022-09-09T17:50:58;17.60;99.90
36548;DHT22;22551;52.206;4.856;2022-09-09T17:56:05;17.60;99.90
36548;DHT22;22551;52.206;4.856;2022-09-09T18:01:10;17.60;99.90
36548;DHT22;22551;52.206;4.856;2022-09-09T18:06:17;17.60;99.90
36548;DHT22;22551;52.206;4.856;2022-09-09T18:11:23;17.60;99.90
36548;DHT22;22551;52.206;4.856;2022-09-09T18:16:29;17.60;99.90
36548;DHT22;22551;52.206;4.856;2022-09-09T18:21:35;17.80;99.90
36548;DHT22;22551;52.206;4.856;2022-09-09T18:26:38;17.90;99.90
36548;DHT22;22551;52.206;4.856;2022-09-09T18:31:41;17.80;99.90
36548;DHT22;22551;52.206;4.856;2022-09-09T18:36:46;17.70;99.90
36548;DHT22;22551;52.206;4.856;2022-09-09T18:41:51;17.60;99.90
36548;DHT22;22551;52.206;4.856;2022-09-09T18:46:54;17.50;99.90
36548;DHT22;22551;52.206;4.856;2022-09-09T18:51:58;17.50;99.90
36548;DHT22;22551;52.206;4.856;2022-09-09T18:57:02;17.50;99.90
36548;DHT22;22551;52.206;4.856;2022-09-09T19:02:05;17.40;99.90
36548;DHT22;22551;52.206;4.856;2022-09-09T19:07:08;17.30;99.90
36548;DHT22;22551;52.206;4.856;2022-09-09T19:12:11;17.20;99.90
36548;DHT22;22551;52.206;4.856;2022-09-09T19:17:13;17.20;99.90
36548;DHT22;22551;52.206;4.856;2022-09-09T19:22:17;17.10;99.90
36548;DHT22;22551;52.206;4.856;2022-09-09T19:27:19;17.00;99.90
36548;DHT22;22551;52.206;4.856;2022-09-09T19:32:21;16.90;99.90
36548;DHT22;22551;52.206;4.856;2022-09-09T19:37:24;16.90;99.90
36548;DHT22;22551;52.206;4.856;2022-09-09T19:42:27;16.80;99.90
36548;DHT22;22551;52.206;4.856;2022-09-09T19:47:29;16.80;99.90
36548;DHT22;22551;52.206;4.856;2022-09-09T19:52:33;16.80;99.90
36548;DHT22;22551;52.206;4.856;2022-09-09T19:57:35;17.10;99.90
36548;DHT22;22551;52.206;4.856;2022-09-09T20:02:37;17.40;99.90
36548;DHT22;22551;52.206;4.856;2022-09-09T20:07:40;17.10;99.90
36548;DHT22;22551;52.206;4.856;2022-09-09T20:12:42;16.90;99.90
36548;DHT22;22551;52.206;4.856;2022-09-09T20:17:44;16.70;99.90
36548;DHT22;22551;52.206;4.856;2022-09-09T20:22:48;16.60;99.90
36548;DHT22;22551;52.206;4.856;2022-09-09T20:27:50;16.50;99.90
36548;DHT22;22551;52.206;4.856;2022-09-09T20:32:52;16.50;99.90
36548;DHT22;22551;52.206;4.856;2022-09-09T20:37:56;16.40;99.90
36548;DHT22;22551;52.206;4.856;2022-09-09T20:42:58;16.40;99.90
36548;DHT22;22551;52.206;4.856;2022-09-09T20:48:01;16.30;99.90
36548;DHT22;22551;52.206;4.856;2022-09-09T20:53:04;16.30;99.90
36548;DHT22;22551;52.206;4.856;2022-09-09T20:58:07;16.10;99.90
36548;DHT22;22551;52.206;4.856;2022-09-09T21:03:09;16.10;99.90
36548;DHT22;22551;52.206;4.856;2022-09-09T21:08:12;16.10;99.90
36548;DHT22;22551;52.206;4.856;2022-09-09T21:13:15;16.10;99.90
36548;DHT22;22551;52.206;4.856;2022-09-09T21:18:17;16.10;99.90
36548;DHT22;22551;52.206;4.856;2022-09-09T21:23:21;16.10;99.90
36548;DHT22;22551;52.206;4.856;2022-09-09T21:28:24;16.10;99.90
36548;DHT22;22551;52.206;4.856;2022-09-09T21:33:27;16.10;99.90
36548;DHT22;22551;52.206;4.856;2022-09-09T21:38:31;16.00;99.90
36548;DHT22;22551;52.206;4.856;2022-09-09T21:43:35;16.00;99.90
36548;DHT22;22551;52.206;4.856;2022-09-09T21:48:37;16.00;99.90
36548;DHT22;22551;52.206;4.856;2022-09-09T21:53:41;15.90;99.90
36548;DHT22;22551;52.206;4.856;2022-09-09T21:58:45;15.90;99.90
36548;DHT22;22551;52.206;4.856;2022-09-09T22:03:48;15.80;99.90
36548;DHT22;22551;52.206;4.856;2022-09-09T22:08:52;15.80;99.90
36548;DHT22;22551;52.206;4.856;2022-09-09T22:13:58;15.80;99.90
36548;DHT22;22551;52.206;4.856;2022-09-09T22:19:02;15.70;99.90
36548;DHT22;22551;52.206;4.856;2022-09-09T22:24:05;15.70;99.90
36548;DHT22;22551;52.206;4.856;2022-09-09T22:29:08;15.80;99.90
36548;DHT22;22551;52.206;4.856;2022-09-09T22:34:11;15.70;99.90
36548;DHT22;22551;52.206;4.856;2022-09-09T22:39:14;15.80;99.90
36548;DHT22;22551;52.206;4.856;2022-09-09T22:44:16;15.80;99.90
36548;DHT22;22551;52.206;4.856;2022-09-09T22:49:18;15.80;99.90
36548;DHT22;22551;52.206;4.856;2022-09-09T22:54:22;15.90;99.90
36548;DHT22;22551;52.206;4.856;2022-09-09T22:59:24;15.90;99.90
36548;DHT22;22551;52.206;4.856;2022-09-09T23:04:27;15.90;99.90
36548;DHT22;22551;52.206;4.856;2022-09-09T23:09:31;16.00;99.90
36548;DHT22;22551;52.206;4.856;2022-09-09T23:14:33;16.00;99.90
36548;DHT22;22551;52.206;4.856;2022-09-09T23:19:35;16.00;99.90
36548;DHT22;22551;52.206;4.856;2022-09-09T23:24:38;16.00;99.90
36548;DHT22;22551;52.206;4.856;2022-09-09T23:29:41;16.10;99.90
36548;DHT22;22551;52.206;4.856;2022-09-09T23:34:43;16.10;99.90
36548;DHT22;22551;52.206;4.856;2022-09-09T23:39:47;16.10;99.90
36548;DHT22;22551;52.206;4.856;2022-09-09T23:44:49;16.00;99.90
36548;DHT22;22551;52.206;4.856;2022-09-09T23:49:52;16.00;99.90
36548;DHT22;22551;52.206;4.856;2022-09-09T23:54:56;16.00;99.90
36548;DHT22;22551;52.206;4.856;2022-09-09T23:59:58;16.00;99.90
